Time;durP1;ratioP1;P1;durP2;ratioP2;P2;SDS_P1;SDS_P2;PMS_P1;PMS_P2;Temp;Humidity;BMP_temperature;BMP_pressure;BME280_temperature;BME280_humidity;BME280_pressure;Samples;Min_cycle;Max_cycle;Signal;HPM_P1;HPM_P2
2023/09/10 00:02:13;;;;;;;23.73;19.70;;;;;;;21.49;74.36;100039.63;5084754;28;20808;-77
2023/09/10 00:04:38;;;;;;;24.17;18.67;;;;;;;21.46;74.00;100043.88;5084604;28;20269;-76
2023/09/10 00:07:03;;;;;;;26.77;19.87;;;;;;;21.45;74.61;100044.22;5083970;28;20669;-76
2023/09/10 00:09:29;;;;;;;21.67;17.63;;;;;;;21.43;74.57;100041.78;5084554;28;20040;-76
2023/09/10 00:11:54;;;;;;;24.57;19.37;;;;;;;21.47;74.31;100044.69;5084765;28;20032;-77
2023/09/10 00:14:19;;;;;;;19.08;16.92;;;;;;;21.49;74.57;100039.63;5084413;28;20768;-77
2023/09/10 00:16:44;;;;;;;22.48;18.52;;;;;;;21.50;74.11;100041.25;5084588;28;20031;-77
2023/09/10 00:19:12;;;;;;;24.10;18.10;;;;;;;21.51;74.30;100045.66;5084897;28;20071;-76
2023/09/10 00:21:37;;;;;;;21.02;18.02;;;;;;;21.46;74.38;100045.81;5084540;28;20028;-77
2023/09/10 00:24:03;;;;;;;27.55;19.05;;;;;;;21.40;74.31;100047.19;5083983;28;20089;-76
2023/09/10 00:26:28;;;;;;;23.83;18.58;;;;;;;21.34;74.55;100044.56;5084104;28;20032;-77
2023/09/10 00:28:54;;;;;;;21.60;17.73;;;;;;;21.30;74.55;100042.78;5084774;28;20039;-76
2023/09/10 00:31:19;;;;;;;25.33;18.80;;;;;;;21.30;74.75;100042.78;5084350;28;20040;-76
2023/09/10 00:33:45;;;;;;;21.93;18.67;;;;;;;21.28;74.61;100037.56;5083752;28;20300;-77
2023/09/10 00:36:10;;;;;;;23.77;17.30;;;;;;;21.27;74.65;100038.72;5084083;28;20046;-77
2023/09/10 00:38:36;;;;;;;25.13;17.85;;;;;;;21.23;74.71;100041.31;5081792;28;20032;-76
2023/09/10 00:41:01;;;;;;;23.40;18.15;;;;;;;21.25;75.04;100032.69;5084499;28;20400;-77
2023/09/10 00:43:26;;;;;;;21.13;17.17;;;;;;;21.20;75.34;100039.22;5083078;28;20028;-76
2023/09/10 00:45:52;;;;;;;25.52;17.52;;;;;;;21.20;75.22;100038.41;5084025;28;20062;-76
2023/09/10 00:48:18;;;;;;;24.08;19.15;;;;;;;21.18;75.28;100029.59;5083792;28;20032;-76
2023/09/10 00:50:44;;;;;;;21.23;17.42;;;;;;;21.18;75.39;100032.38;5082581;28;20047;-77
2023/09/10 00:53:09;;;;;;;23.55;19.13;;;;;;;21.15;75.35;100027.50;5083502;28;20039;-76
2023/09/10 00:55:35;;;;;;;22.55;18.60;;;;;;;21.15;75.27;100028.34;5082909;28;20121;-78
2023/09/10 00:58:02;;;;;;;22.52;19.48;;;;;;;21.11;75.41;100028.16;5083536;28;20040;-77
2023/09/10 01:00:28;;;;;;;26.40;21.27;;;;;;;21.11;75.42;100036.47;5083994;28;20744;-76
2023/09/10 01:02:54;;;;;;;22.25;17.85;;;;;;;21.11;75.34;100036.47;5083997;28;20028;-76
2023/09/10 01:05:20;;;;;;;30.60;18.35;;;;;;;;;;5083108;28;20050;-76
2023/09/10 01:07:45;;;;;;;23.58;19.15;;;;;;;21.09;74.90;100033.22;5084018;28;20052;-77
2023/09/10 01:10:11;;;;;;;26.70;20.17;;;;;;;21.07;75.63;100029.16;5083386;28;20039;-76
2023/09/10 01:12:36;;;;;;;23.90;18.83;;;;;;;21.08;75.48;100026.06;5083861;28;20485;-76
2023/09/10 01:15:26;;;;;;;23.38;18.58;;;;;;;21.07;75.49;100029.97;5083341;28;20135;-70
2023/09/10 01:18:05;;;;;;;25.73;18.75;;;;;;;21.11;75.47;100030.94;5082467;28;20039;-70
2023/09/10 01:21:03;;;;;;;24.60;18.77;;;;;;;21.15;74.88;100030.28;5083112;28;20436;-70
2023/09/10 01:23:49;;;;;;;24.20;19.13;;;;;;;21.16;75.02;100021.63;5082091;28;20066;-70
2023/09/10 01:26:14;;;;;;;24.65;18.75;;;;;;;21.17;75.26;100028.00;5082781;28;20058;-77
2023/09/10 01:28:40;;;;;;;28.03;21.00;;;;;;;21.15;75.14;100024.75;5083577;28;20035;-77
2023/09/10 01:31:05;;;;;;;26.77;21.57;;;;;;;21.17;75.13;100019.69;5083823;28;20257;-76
2023/09/10 01:33:35;;;;;;;28.25;20.60;;;;;;;21.17;75.13;100019.69;5082744;28;20306;-76
2023/09/10 01:36:29;;;;;;;24.33;18.77;;;;;;;21.17;74.92;100025.22;5083220;28;20976;-76
2023/09/10 01:39:12;;;;;;;25.20;18.73;;;;;;;21.16;75.04;100020.81;5082893;28;20044;-76
2023/09/10 01:41:39;;;;;;;21.10;18.83;;;;;;;21.14;75.23;100012.00;5083024;28;20409;-77
2023/09/10 01:44:05;;;;;;;28.90;19.50;;;;;;;;;;5082749;28;20036;-77
2023/09/10 01:46:34;;;;;;;27.70;20.17;;;;;;;21.15;75.21;100020.03;5083032;28;20647;-77
2023/09/10 01:49:01;;;;;;;23.20;18.42;;;;;;;21.16;75.00;100018.88;5082125;28;20035;-76
2023/09/10 01:51:27;;;;;;;24.70;18.20;;;;;;;21.17;74.98;100014.97;5082670;28;20122;-77
2023/09/10 01:53:52;;;;;;;23.08;18.92;;;;;;;21.16;74.99;100015.28;5082617;28;20062;-77
2023/09/10 01:56:17;;;;;;;26.02;20.48;;;;;;;;;;5082742;28;20050;-77
2023/09/10 01:58:42;;;;;;;22.13;17.90;;;;;;;;;;5083418;28;20622;-77
2023/09/10 02:01:08;;;;;;;26.87;19.40;;;;;;;21.13;74.77;100013.19;5082758;28;20036;-77
2023/09/10 02:03:33;;;;;;;24.60;19.55;;;;;;;21.16;74.84;100015.28;5084310;28;20603;-76
2023/09/10 02:06:03;;;;;;;26.00;19.00;;;;;;;21.15;75.03;100013.66;5086962;28;20062;-76
2023/09/10 02:08:28;;;;;;;30.80;19.40;;;;;;;21.14;74.85;100017.56;5087008;28;20606;-78
2023/09/10 02:10:54;;;;;;;22.52;18.95;;;;;;;21.13;74.60;100010.41;5087148;28;20035;-78
2023/09/10 02:13:19;;;;;;;25.23;17.73;;;;;;;21.10;74.90;100018.22;5087618;28;20126;-77
2023/09/10 02:15:44;;;;;;;20.67;16.70;;;;;;;21.09;74.55;100010.25;5086702;28;21547;-76
2023/09/10 02:18:09;;;;;;;24.33;19.17;;;;;;;21.08;74.68;100017.75;5086801;28;20031;-77
2023/09/10 02:20:36;;;;;;;24.33;18.88;;;;;;;21.07;74.94;100016.09;5086536;28;20257;-78
2023/09/10 02:23:02;;;;;;;21.65;16.27;;;;;;;21.07;74.70;100018.09;5086608;28;20063;-78
2023/09/10 02:25:27;;;;;;;22.33;17.17;;;;;;;21.06;74.79;100016.44;5086315;28;20127;-72
2023/09/10 02:27:52;;;;;;;23.98;17.95;;;;;;;21.05;75.11;100020.38;5086438;28;20055;-71
2023/09/10 02:30:17;;;;;;;23.30;17.60;;;;;;;21.03;74.91;100023.44;5085886;28;20036;-71
2023/09/10 02:32:43;;;;;;;24.20;18.27;;;;;;;21.01;75.11;100017.44;5085748;28;20036;-71
2023/09/10 02:35:08;;;;;;;22.53;17.63;;;;;;;20.96;75.20;100028.66;5086091;28;20047;-77
2023/09/10 02:37:33;;;;;;;23.65;18.58;;;;;;;20.95;75.18;100027.06;5086853;28;20057;-79
2023/09/10 02:39:58;;;;;;;23.67;18.10;;;;;;;20.96;75.58;100035.03;5087236;28;20185;-78
2023/09/10 02:42:24;;;;;;;23.70;18.20;;;;;;;20.98;75.52;100029.19;5086740;28;20259;-78
2023/09/10 02:44:49;;;;;;;23.13;18.30;;;;;;;20.97;75.53;100038.66;5085956;28;20069;-78
2023/09/10 02:47:14;;;;;;;25.17;18.97;;;;;;;20.95;75.54;100043.69;5086269;28;20047;-78
2023/09/10 02:49:40;;;;;;;31.13;19.53;;;;;;;20.95;75.53;100035.38;5085798;28;20284;-77
2023/09/10 02:52:05;;;;;;;24.30;20.02;;;;;;;20.92;75.24;100041.53;5085756;28;20375;-76
2023/09/10 02:54:33;;;;;;;25.60;20.13;;;;;;;20.84;75.60;100044.00;5085634;28;20046;-78
2023/09/10 02:56:58;;;;;;;24.70;19.48;;;;;;;20.79;75.97;100041.41;5085596;28;20323;-76
2023/09/10 02:59:25;;;;;;;27.47;21.70;;;;;;;20.76;75.89;100047.59;5085480;28;20793;-77
2023/09/10 03:01:51;;;;;;;26.27;20.15;;;;;;;20.71;76.23;100048.56;5085988;28;20264;-76
2023/09/10 03:04:17;;;;;;;27.25;21.25;;;;;;;20.70;75.88;100043.38;5084259;28;20035;-76
2023/09/10 03:06:46;;;;;;;22.25;19.65;;;;;;;20.69;76.02;100050.03;5085603;28;20253;-77
2023/09/10 03:09:19;;;;;;;29.92;22.17;;;;;;;20.63;75.90;100044.69;5085933;28;20032;-78
2023/09/10 03:11:46;;;;;;;22.27;19.48;;;;;;;20.59;76.26;100046.47;5086260;28;20044;-77
2023/09/10 03:14:11;;;;;;;28.38;21.38;;;;;;;20.58;76.27;100044.03;5085421;28;20039;-76
2023/09/10 03:16:42;;;;;;;29.58;21.63;;;;;;;20.62;76.53;100045.84;5085807;28;20120;-76
2023/09/10 03:19:07;;;;;;;23.67;20.20;;;;;;;20.60;76.46;100055.59;5086053;28;20032;-76
2023/09/10 03:21:35;;;;;;;25.50;20.95;;;;;;;20.61;76.38;100048.91;5085383;28;20035;-77
2023/09/10 03:24:01;;;;;;;25.27;20.88;;;;;;;20.60;76.71;100045.34;5084704;28;20542;-77
2023/09/10 03:26:26;;;;;;;25.85;19.83;;;;;;;20.56;76.37;100041.59;5085522;28;20028;-78
2023/09/10 03:28:51;;;;;;;26.50;20.57;;;;;;;20.53;76.56;100045.81;5085578;28;20028;-78
2023/09/10 03:31:17;;;;;;;27.73;21.30;;;;;;;20.47;76.48;100041.59;5085602;28;20606;-77
2023/09/10 03:33:43;;;;;;;24.88;19.80;;;;;;;20.41;76.86;100043.72;5085259;28;20027;-78
2023/09/10 03:36:09;;;;;;;25.92;20.23;;;;;;;20.41;76.82;100035.41;5085181;28;20501;-77
2023/09/10 03:38:34;;;;;;;27.60;21.23;;;;;;;20.38;76.90;100041.56;5085308;28;20107;-75
2023/09/10 03:41:00;;;;;;;27.63;22.13;;;;;;;20.38;77.06;100044.34;5085372;28;20066;-78
2023/09/10 03:43:25;;;;;;;34.05;21.25;;;;;;;20.38;77.32;100043.56;5085332;28;20108;-78
2023/09/10 03:45:50;;;;;;;27.88;20.52;;;;;;;20.36;77.35;100034.75;5085418;28;20047;-76
2023/09/10 03:48:16;;;;;;;26.33;20.60;;;;;;;20.37;77.05;100031.66;5085489;28;20036;-77
2023/09/10 03:50:41;;;;;;;25.92;20.10;;;;;;;20.39;77.15;100046.00;5085019;28;20722;-76
2023/09/10 03:53:07;;;;;;;28.63;20.90;;;;;;;20.38;76.93;100041.56;5085327;28;20481;-77
2023/09/10 03:55:32;;;;;;;28.17;22.33;;;;;;;20.37;77.28;100048.25;5084761;28;20249;-76
2023/09/10 03:57:58;;;;;;;29.33;23.00;;;;;;;20.36;77.19;100046.63;5085007;28;20088;-76
2023/09/10 04:00:23;;;;;;;25.80;21.33;;;;;;;20.35;77.26;100050.53;5084885;28;20040;-77
2023/09/10 04:02:49;;;;;;;28.13;21.65;;;;;;;20.35;77.30;100045.00;5084919;28;20040;-76
2023/09/10 04:05:14;;;;;;;27.90;21.55;;;;;;;20.32;77.39;100048.41;5084532;28;20488;-78
2023/09/10 04:07:40;;;;;;;28.23;20.05;;;;;;;20.32;77.53;100045.63;5084742;28;20040;-78
2023/09/10 04:10:07;;;;;;;27.27;20.38;;;;;;;20.30;77.34;100047.91;5085060;28;20032;-77
2023/09/10 04:12:33;;;;;;;30.42;22.30;;;;;;;20.30;77.38;100048.75;5085184;28;20035;-77
2023/09/10 04:14:58;;;;;;;24.50;20.65;;;;;;;20.28;77.28;100051.00;5084624;28;20028;-77
2023/09/10 04:17:28;;;;;;;25.77;21.13;;;;;;;20.27;77.46;100059.66;5084359;28;20032;-76
2023/09/10 04:19:53;;;;;;;29.25;21.02;;;;;;;20.23;77.67;100047.59;5085207;28;20024;-77
2023/09/10 04:22:18;;;;;;;29.17;21.70;;;;;;;20.22;77.35;100051.50;5084897;28;20401;-76
2023/09/10 04:24:44;;;;;;;27.45;21.45;;;;;;;20.25;77.56;100048.09;5084387;28;20048;-76
2023/09/10 04:27:09;;;;;;;25.13;21.45;;;;;;;20.22;77.54;100040.44;5083843;28;20491;-76
2023/09/10 04:29:34;;;;;;;26.90;21.47;;;;;;;20.23;77.51;100053.13;5084537;28;20028;-77
2023/09/10 04:32:00;;;;;;;27.03;20.37;;;;;;;20.23;77.62;100058.66;5084868;28;20267;-78
2023/09/10 04:34:25;;;;;;;25.38;21.52;;;;;;;20.21;77.57;100055.41;5083775;28;20268;-76
2023/09/10 04:36:50;;;;;;;25.20;20.77;;;;;;;20.18;78.25;100052.16;5084774;28;20069;-76
2023/09/10 04:39:16;;;;;;;27.27;20.20;;;;;;;20.19;77.81;100055.72;5084185;28;20685;-77
2023/09/10 04:41:41;;;;;;;26.60;20.13;;;;;;;20.18;77.79;100056.84;5084320;28;20265;-76
2023/09/10 04:44:07;;;;;;;26.17;20.57;;;;;;;20.20;77.51;100059.31;5083635;28;20036;-71
2023/09/10 04:46:32;;;;;;;26.38;21.88;;;;;;;20.18;77.48;100046.63;5083622;28;20572;-70
2023/09/10 04:48:58;;;;;;;29.63;21.90;;;;;;;20.25;77.43;100056.38;5083466;28;20024;-70
2023/09/10 04:51:23;;;;;;;29.88;21.58;;;;;;;20.29;77.26;100051.84;5083490;28;20272;-70
2023/09/10 04:53:48;;;;;;;27.67;20.35;;;;;;;20.29;77.27;100040.75;5083278;28;20032;-71
2023/09/10 04:56:14;;;;;;;28.58;22.10;;;;;;;20.26;77.46;100050.53;5083270;28;20036;-70
2023/09/10 04:58:39;;;;;;;27.17;22.63;;;;;;;20.28;77.43;100051.00;5083300;28;20063;-70
2023/09/10 05:01:05;;;;;;;24.90;19.25;;;;;;;20.33;77.39;100052.00;5082942;28;20256;-72
2023/09/10 05:03:30;;;;;;;29.92;21.75;;;;;;;20.35;77.38;100055.25;5082700;28;20069;-70
2023/09/10 05:05:59;;;;;;;29.23;21.73;;;;;;;20.34;77.44;100054.44;5082781;28;20126;-69
2023/09/10 05:08:25;;;;;;;28.70;20.48;;;;;;;20.34;77.50;100054.44;5082826;28;20268;-70
2023/09/10 05:10:50;;;;;;;32.10;22.95;;;;;;;20.33;77.64;100058.34;5082472;28;20050;-70
2023/09/10 05:13:15;;;;;;;31.53;22.10;;;;;;;20.32;77.66;100053.94;5082734;28;20043;-70
2023/09/10 05:15:41;;;;;;;26.90;22.17;;;;;;;20.33;77.68;100052.00;5082379;28;20418;-71
2023/09/10 05:18:06;;;;;;;28.15;21.58;;;;;;;20.34;77.91;100053.66;5082978;28;20260;-72
2023/09/10 05:20:31;;;;;;;25.83;20.50;;;;;;;20.36;77.96;100057.69;5083118;28;20028;-70
2023/09/10 05:22:57;;;;;;;24.40;19.80;;;;;;;20.39;77.61;100061.78;5082836;28;20268;-72
2023/09/10 05:25:22;;;;;;;31.05;21.83;;;;;;;20.39;77.99;100057.06;5082457;28;20040;-70
2023/09/10 05:27:48;;;;;;;25.30;20.50;;;;;;;20.47;77.88;100060.16;5082921;28;20078;-70
2023/09/10 05:30:13;;;;;;;30.23;22.50;;;;;;;20.48;78.02;100061.78;5082580;28;20264;-70
2023/09/10 05:32:39;;;;;;;30.83;22.40;;;;;;;20.51;78.05;100058.34;5082785;28;20946;-72
2023/09/10 05:35:04;;;;;;;30.05;22.05;;;;;;;20.55;78.18;100062.09;5081934;28;20269;-70
2023/09/10 05:37:29;;;;;;;26.80;19.42;;;;;;;20.57;78.33;100064.53;5082133;28;20059;-70
2023/09/10 05:39:55;;;;;;;26.57;21.03;;;;;;;20.59;78.37;100065.84;5082699;28;20043;-70
2023/09/10 05:42:20;;;;;;;29.48;21.98;;;;;;;20.62;78.55;100070.75;5082402;28;20252;-70
2023/09/10 05:44:45;;;;;;;25.20;20.63;;;;;;;20.64;78.66;100062.91;5082196;28;20127;-70
2023/09/10 05:47:11;;;;;;;26.17;19.67;;;;;;;20.68;78.63;100068.63;5082567;28;20288;-70
2023/09/10 05:49:37;;;;;;;27.70;21.73;;;;;;;20.73;78.82;100065.69;5082880;28;20127;-72
2023/09/10 05:52:03;;;;;;;26.50;20.98;;;;;;;20.76;78.75;100069.75;5082497;28;20267;-70
2023/09/10 05:54:29;;;;;;;23.65;20.38;;;;;;;20.79;78.89;100066.34;5081214;28;20048;-77
2023/09/10 05:56:54;;;;;;;27.63;20.60;;;;;;;20.83;78.83;100070.06;5082645;28;20020;-76
2023/09/10 05:59:19;;;;;;;26.67;19.20;;;;;;;20.86;79.28;100066.66;5083267;28;20052;-78
2023/09/10 06:01:44;;;;;;;25.67;20.20;;;;;;;20.90;79.25;100071.53;5083155;28;20042;-79
2023/09/10 06:04:10;;;;;;;26.10;21.10;;;;;;;20.93;79.15;100068.13;5082658;28;20284;-77
2023/09/10 06:06:35;;;;;;;26.27;20.95;;;;;;;20.97;79.09;100066.34;5083642;28;20362;-77
2023/09/10 06:09:00;;;;;;;27.65;21.15;;;;;;;21.02;79.41;100066.19;5082994;28;20416;-79
2023/09/10 06:11:25;;;;;;;25.70;20.63;;;;;;;21.06;79.17;100067.16;5082317;28;20078;-78
2023/09/10 06:13:51;;;;;;;25.13;20.83;;;;;;;21.10;79.47;100067.28;5082358;28;20276;-78
2023/09/10 06:16:16;;;;;;;26.30;19.67;;;;;;;21.16;79.50;100065.16;5082792;28;20269;-78
2023/09/10 06:18:41;;;;;;;37.15;22.70;;;;;;;21.19;79.26;100064.50;5082495;28;20109;-78
2023/09/10 06:21:07;;;;;;;25.48;20.60;;;;;;;21.22;79.42;100069.38;5082603;28;20040;-79
2023/09/10 06:23:32;;;;;;;24.90;22.17;;;;;;;21.25;79.36;100068.75;5082517;28;20475;-79
2023/09/10 06:25:57;;;;;;;27.83;21.40;;;;;;;21.26;79.61;100067.59;5081625;28;20256;-79
2023/09/10 06:28:24;;;;;;;25.98;21.88;;;;;;;21.28;79.43;100075.56;5082105;28;20048;-76
2023/09/10 06:30:49;;;;;;;28.58;22.08;;;;;;;21.31;79.16;100075.75;5082938;28;20028;-77
2023/09/10 06:33:16;;;;;;;26.13;21.08;;;;;;;21.34;79.07;100077.84;5082592;28;20593;-78
2023/09/10 06:35:41;;;;;;;26.50;21.20;;;;;;;21.37;79.00;100078.31;5082334;28;20036;-78
2023/09/10 06:38:07;;;;;;;29.52;22.45;;;;;;;21.40;78.92;100080.44;5082456;28;20044;-79
2023/09/10 06:40:36;;;;;;;29.48;21.90;;;;;;;21.43;78.77;100080.59;5082892;28;20028;-78
2023/09/10 06:43:03;;;;;;;22.48;19.67;;;;;;;21.46;78.99;100079.09;5082545;28;20089;-78
2023/09/10 06:45:29;;;;;;;26.08;20.00;;;;;;;21.49;78.65;100083.19;5082297;28;20032;-78
2023/09/10 06:47:54;;;;;;;23.63;20.35;;;;;;;21.52;78.56;100086.09;5082307;28;20474;-79
2023/09/10 06:50:19;;;;;;;25.27;19.63;;;;;;;21.55;78.54;100082.66;5085176;28;20085;-78
2023/09/10 06:52:45;;;;;;;33.83;18.73;;;;;;;21.55;78.55;100079.91;5086812;28;20514;-82
2023/09/10 06:55:10;;;;;;;25.97;21.00;;;;;;;21.58;79.03;100082.00;5086532;28;20268;-82
2023/09/10 06:57:35;;;;;;;24.70;20.57;;;;;;;21.63;79.02;100082.97;5086791;28;20267;-81
2023/09/10 07:00:00;;;;;;;32.30;18.57;;;;;;;21.66;79.14;100090.63;5085494;28;20097;-80
2023/09/10 07:02:26;;;;;;;21.40;18.05;;;;;;;21.69;78.46;100081.63;5086612;28;20123;-82
2023/09/10 07:04:51;;;;;;;24.17;17.75;;;;;;;21.77;78.14;100089.09;5086115;28;20048;-81
2023/09/10 07:07:16;;;;;;;27.08;18.02;;;;;;;21.80;77.83;100082.88;5085842;28;20060;-81
2023/09/10 07:09:42;;;;;;;28.08;19.67;;;;;;;21.85;77.67;100078.31;5086223;28;20505;-82
2023/09/10 07:12:07;;;;;;;27.30;18.40;;;;;;;21.90;77.01;100089.25;5085577;28;20068;-80
2023/09/10 07:14:32;;;;;;;24.50;19.65;;;;;;;21.95;77.06;100094.59;5085327;28;20265;-77
2023/09/10 07:16:58;;;;;;;21.43;17.37;;;;;;;21.99;77.06;100092.78;5086054;28;20039;-75
2023/09/10 07:19:23;;;;;;;22.73;17.90;;;;;;;22.09;76.35;100088.00;5085772;28;20810;-79
2023/09/10 07:21:48;;;;;;;25.20;18.43;;;;;;;22.21;76.72;100093.63;5085862;28;20048;-75
2023/09/10 07:24:13;;;;;;;26.07;19.10;;;;;;;22.27;75.99;100095.03;5085234;28;20900;-75
2023/09/10 07:26:39;;;;;;;25.73;20.10;;;;;;;22.29;76.12;100094.72;5085057;28;20078;-75
2023/09/10 07:29:06;;;;;;;23.65;18.30;;;;;;;22.28;76.04;100096.69;5084964;28;20059;-75
2023/09/10 07:31:33;;;;;;;25.88;18.92;;;;;;;22.24;76.31;100095.75;5085488;28;20035;-77
2023/09/10 07:33:59;;;;;;;23.98;17.23;;;;;;;22.24;76.08;100095.75;5084493;28;20036;-78
2023/09/10 07:36:25;;;;;;;23.17;18.90;;;;;;;22.34;76.11;100099.25;5085095;28;20046;-76
2023/09/10 07:38:50;;;;;;;25.42;19.30;;;;;;;22.39;75.19;100096.28;5084846;28;20044;-77
2023/09/10 07:41:15;;;;;;;21.52;18.33;;;;;;;22.44;75.59;100109.97;5084989;28;20455;-77
2023/09/10 07:43:41;;;;;;;20.53;16.53;;;;;;;22.42;75.66;100112.28;5085401;28;20102;-75
2023/09/10 07:46:06;;;;;;;27.02;20.33;;;;;;;22.46;75.54;100104.88;5085347;28;20260;-80
2023/09/10 07:48:31;;;;;;;27.10;19.83;;;;;;;22.58;75.20;100106.09;5084461;28;20044;-77
2023/09/10 07:50:58;;;;;;;25.17;18.83;;;;;;;22.55;75.27;100106.78;5084959;28;20279;-77
2023/09/10 07:53:23;;;;;;;22.73;18.88;;;;;;;22.54;75.90;100116.28;5084852;28;20071;-79
2023/09/10 07:55:49;;;;;;;23.00;19.45;;;;;;;22.56;75.95;100112.00;5085217;28;20058;-80
2023/09/10 07:58:14;;;;;;;21.42;18.05;;;;;;;22.59;76.01;100116.06;5084885;28;20113;-79
2023/09/10 08:00:40;;;;;;;19.17;16.95;;;;;;;22.62;75.63;100116.22;5084435;28;20054;-77
2023/09/10 08:03:06;;;;;;;18.85;16.95;;;;;;;22.69;75.51;100121.25;5084807;28;20101;-79
2023/09/10 08:05:33;;;;;;;20.88;17.27;;;;;;;22.72;75.24;100120.56;5084538;28;20036;-77
2023/09/10 08:08:02;;;;;;;23.63;16.95;;;;;;;22.72;75.79;100131.69;5084827;28;20127;-77
2023/09/10 08:10:28;;;;;;;22.10;17.42;;;;;;;22.74;75.38;100123.81;5085038;28;20043;-78
2023/09/10 08:12:54;;;;;;;23.50;19.15;;;;;;;22.80;75.73;100123.63;5084993;28;20469;-78
2023/09/10 08:15:19;;;;;;;20.00;17.37;;;;;;;22.82;75.38;100132.44;5084106;28;20044;-78
2023/09/10 08:17:44;;;;;;;18.10;16.07;;;;;;;22.85;75.57;100129.78;5084971;28;20036;-77
2023/09/10 08:20:10;;;;;;;20.83;16.37;;;;;;;22.91;75.39;100122.06;5084314;28;20516;-78
2023/09/10 08:22:35;;;;;;;20.73;15.15;;;;;;;22.94;75.67;100121.34;5083241;28;20086;-78
2023/09/10 08:25:04;;;;;;;19.47;15.70;;;;;;;22.96;75.73;100121.84;5083499;28;20051;-80
2023/09/10 08:27:29;;;;;;;18.13;14.25;;;;;;;23.01;75.73;100115.25;5084390;28;20426;-79
2023/09/10 08:29:54;;;;;;;20.67;16.43;;;;;;;23.05;76.06;100112.59;5084646;28;20126;-79
2023/09/10 08:32:19;;;;;;;26.50;15.97;;;;;;;23.05;76.00;100121.75;5084843;28;20028;-81
2023/09/10 08:34:45;;;;;;;20.07;15.07;;;;;;;23.12;75.80;100115.66;5083778;28;20048;-83
2023/09/10 08:37:11;;;;;;;19.10;16.67;;;;;;;23.16;75.80;100111.03;5084630;28;20078;-81
2023/09/10 08:39:37;;;;;;;19.77;15.13;;;;;;;23.18;75.40;100111.50;5084397;28;20283;-81
2023/09/10 08:42:13;;;;;;;18.05;15.40;;;;;;;23.24;75.97;100116.84;5084021;28;20661;-80
2023/09/10 08:44:43;;;;;;;18.52;15.40;;;;;;;23.28;75.96;100115.00;5084294;28;20067;-79
2023/09/10 08:47:09;;;;;;;20.55;14.32;;;;;;;23.30;75.79;100121.03;5084368;28;20044;-79
2023/09/10 08:49:40;;;;;;;17.13;14.35;;;;;;;23.41;75.84;100113.06;5084238;28;20051;-80
2023/09/10 08:52:06;;;;;;;18.17;14.02;;;;;;;23.47;75.21;100108.94;5083899;28;20387;-82
2023/09/10 08:54:31;;;;;;;48.78;16.20;;;;;;;23.49;75.36;100106.63;5084037;28;20417;-81
2023/09/10 08:56:57;;;;;;;27.90;16.23;;;;;;;23.53;75.23;100106.75;5083957;28;20043;-79
2023/09/10 08:59:23;;;;;;;32.50;16.02;;;;;;;23.59;75.34;100113.72;5083824;28;20044;-78
2023/09/10 09:01:49;;;;;;;18.73;13.40;;;;;;;23.72;74.94;100116.50;5083414;28;20020;-79
2023/09/10 09:04:14;;;;;;;32.28;13.82;;;;;;;23.75;74.92;100110.25;5083225;28;20187;-81
2023/09/10 09:06:43;;;;;;;22.42;15.32;;;;;;;23.78;74.95;100107.56;5083616;28;20075;-79
2023/09/10 09:09:11;;;;;;;28.65;13.70;;;;;;;23.81;74.81;100106.09;5081787;28;20105;-80
2023/09/10 09:11:37;;;;;;;21.90;12.82;;;;;;;23.84;74.76;100105.38;5084313;28;20040;-82
2023/09/10 09:14:07;;;;;;;20.77;13.32;;;;;;;23.92;74.71;100111.19;5081998;28;20623;-82
2023/09/10 09:16:33;;;;;;;19.67;12.60;;;;;;;23.90;74.74;100106.75;5083855;28;20032;-80
2023/09/10 09:19:01;;;;;;;16.80;14.60;;;;;;;24.03;74.35;100106.78;5082049;28;20043;-78
2023/09/10 09:21:29;;;;;;;16.13;13.35;;;;;;;24.07;73.96;100104.91;5084425;28;20043;-86
2023/09/10 09:23:59;;;;;;;35.80;14.18;;;;;;;24.11;73.90;100105.03;5084379;28;20832;-85
2023/09/10 09:26:27;;;;;;;19.40;14.32;;;;;;;24.14;73.66;100104.34;5087102;28;20035;-84
2023/09/10 09:28:55;;;;;;;42.10;17.02;;;;;;;24.18;73.55;100101.66;5084630;28;20126;-83
2023/09/10 09:31:21;;;;;;;16.52;12.02;;;;;;;24.25;72.42;100104.69;5084710;28;20060;-83
2023/09/10 09:33:46;;;;;;;23.75;12.25;;;;;;;24.28;72.55;100101.22;5084040;28;20129;-84
2023/09/10 09:36:12;;;;;;;15.23;10.60;;;;;;;24.33;72.05;100100.97;5084648;28;20036;-84
2023/09/10 09:38:50;;;;;;;22.42;12.55;;;;;;;24.37;71.75;100096.31;5084692;28;20036;-84
2023/09/10 09:41:16;;;;;;;18.38;11.35;;;;;;;24.41;71.95;100098.41;5085689;28;20040;-84
2023/09/10 09:43:42;;;;;;;15.00;10.40;;;;;;;24.46;71.29;100096.19;5083957;28;20059;-84
2023/09/10 09:46:08;;;;;;;20.83;12.18;;;;;;;24.50;71.57;100096.28;5084634;28;20037;-84
2023/09/10 09:48:34;;;;;;;51.63;17.80;;;;;;;24.63;70.69;100093.47;5083094;28;20063;-84
2023/09/10 09:51:01;;;;;;;33.33;12.10;;;;;;;24.70;70.97;100096.44;5083927;28;20036;-84
2023/09/10 09:53:28;;;;;;;16.52;11.80;;;;;;;24.72;69.96;100091.34;5083708;28;20104;-83
2023/09/10 09:55:55;;;;;;;20.52;11.35;;;;;;;24.77;69.79;100093.88;5084438;28;20174;-84
2023/09/10 09:58:21;;;;;;;17.48;10.70;;;;;;;24.83;69.34;100086.06;5084471;28;20040;-83
2023/09/10 10:00:46;;;;;;;21.25;12.57;;;;;;;24.82;69.49;100085.25;5084149;28;20396;-83
2023/09/10 10:03:11;;;;;;;19.77;10.00;;;;;;;24.86;69.31;100090.09;5084049;28;20127;-84
2023/09/10 10:05:37;;;;;;;30.35;13.88;;;;;;;24.90;68.84;100085.44;5082898;28;20863;-83
2023/09/10 10:08:03;;;;;;;56.97;13.43;;;;;;;25.01;67.98;100080.22;5084326;28;20032;-82
2023/09/10 10:10:29;;;;;;;65.35;15.77;;;;;;;25.07;67.84;100078.78;5083441;28;20039;-82
2023/09/10 10:12:54;;;;;;;53.53;16.95;;;;;;;25.06;68.01;100083.53;5083367;28;20020;-82
2023/09/10 10:15:22;;;;;;;33.28;11.68;;;;;;;25.11;68.00;100081.66;5082806;28;20032;-83
2023/09/10 10:17:48;;;;;;;55.92;14.60;;;;;;;25.14;66.02;100075.38;5083240;28;20027;-79
2023/09/10 10:20:13;;;;;;;41.42;13.73;;;;;;;25.22;66.60;100073.59;5082980;28;20444;-79
2023/09/10 10:22:40;;;;;;;44.63;12.88;;;;;;;25.27;66.70;100073.31;5083155;28;20050;-82
2023/09/10 10:25:06;;;;;;;26.33;12.43;;;;;;;25.42;65.33;100066.16;5085170;28;20598;-82
2023/09/10 10:27:35;;;;;;;20.85;10.88;;;;;;;25.59;64.19;100069.75;5086873;28;20493;-82
2023/09/10 10:30:04;;;;;;;22.10;10.60;;;;;;;25.60;64.21;100072.19;5087003;28;20119;-83
2023/09/10 10:32:38;;;;;;;17.85;9.32;;;;;;;25.61;63.74;100075.75;5087285;28;20024;-83
2023/09/10 10:35:05;;;;;;;21.17;10.70;;;;;;;25.60;64.38;100066.59;5087307;28;20127;-82
2023/09/10 10:37:46;;;;;;;14.50;9.07;;;;;;;25.62;64.08;100069.00;5086918;28;20607;-82
2023/09/10 10:40:13;;;;;;;19.92;9.23;;;;;;;25.64;64.42;100061.09;5086725;28;20040;-82
2023/09/10 10:42:57;;;;;;;16.33;9.32;;;;;;;25.68;64.74;100062.03;5086850;28;20035;-81
2023/09/10 10:45:24;;;;;;;17.83;9.93;;;;;;;25.70;64.52;100062.47;5086525;28;20332;-82
2023/09/10 10:47:50;;;;;;;17.63;9.70;;;;;;;25.73;64.67;100058.94;5086159;28;20039;-82
2023/09/10 10:50:23;;;;;;;12.43;8.45;;;;;;;25.74;63.97;100056.97;5086397;28;20036;-82
2023/09/10 10:52:58;;;;;;;15.77;9.43;;;;;;;25.77;64.25;100053.47;5086622;28;20085;-82
2023/09/10 10:55:24;;;;;;;17.95;10.23;;;;;;;25.80;64.11;100055.53;5086593;28;20112;-82
2023/09/10 10:57:51;;;;;;;98.55;18.50;;;;;;;25.84;63.73;100052.81;5086595;28;20127;-83
2023/09/10 11:00:17;;;;;;;22.83;10.32;;;;;;;25.92;62.99;100048.19;5086825;28;20047;-81
2023/09/10 11:02:42;;;;;;;16.80;8.73;;;;;;;25.94;63.13;100041.09;5086267;28;20367;-82
2023/09/10 11:05:08;;;;;;;23.53;9.70;;;;;;;25.97;62.81;100048.75;5085964;28;20038;-82
2023/09/10 11:07:34;;;;;;;20.55;9.13;;;;;;;26.02;63.08;100055.19;5086263;28;20397;-83
2023/09/10 11:10:28;;;;;;;21.08;10.02;;;;;;;26.06;62.79;100045.75;5086064;28;20418;-83